sensor_id;sensor_type;location;lat;lon;timestamp;P1;durP1;ratioP1;P2;durP2;ratioP2
6117;SDS011;3089;48.202;11.510;2024-03-02T00:01:50;10.43;;;5.60;;
6117;SDS011;3089;48.202;11.510;2024-03-02T00:04:18;10.40;;;6.30;;
6117;SDS011;3089;48.202;11.510;2024-03-02T00:06:46;9.10;;;5.50;;
6117;SDS011;3089;48.202;11.510;2024-03-02T00:09:16;9.10;;;5.57;;
6117;SDS011;3089;48.202;11.510;2024-03-02T00:11:43;8.73;;;5.13;;
6117;SDS011;3089;48.202;11.510;2024-03-02T00:14:12;9.43;;;5.03;;
6117;SDS011;3089;48.202;11.510;2024-03-02T00:16:40;7.73;;;5.30;;
6117;SDS011;3089;48.202;11.510;2024-03-02T00:19:08;7.70;;;4.63;;
6117;SDS011;3089;48.202;11.510;2024-03-02T00:21:36;10.10;;;5.40;;
6117;SDS011;3089;48.202;11.510;2024-03-02T00:24:07;9.70;;;5.97;;
6117;SDS011;3089;48.202;11.510;2024-03-02T00:26:48;8.90;;;5.47;;
6117;SDS011;3089;48.202;11.510;2024-03-02T00:29:16;9.47;;;5.37;;
6117;SDS011;3089;48.202;11.510;2024-03-02T00:31:45;8.60;;;5.53;;
6117;SDS011;3089;48.202;11.510;2024-03-02T00:34:12;11.80;;;5.50;;
6117;SDS011;3089;48.202;11.510;2024-03-02T00:36:42;10.77;;;5.77;;
6117;SDS011;3089;48.202;11.510;2024-03-02T00:39:11;10.13;;;6.03;;
6117;SDS011;3089;48.202;11.510;2024-03-02T00:41:43;8.53;;;5.40;;
6117;SDS011;3089;48.202;11.510;2024-03-02T00:44:12;8.87;;;5.50;;
6117;SDS011;3089;48.202;11.510;2024-03-02T00:46:42;8.27;;;5.37;;
6117;SDS011;3089;48.202;11.510;2024-03-02T00:49:11;10.10;;;5.50;;
6117;SDS011;3089;48.202;11.510;2024-03-02T00:51:46;9.93;;;6.17;;
6117;SDS011;3089;48.202;11.510;2024-03-02T00:54:15;9.97;;;6.50;;
6117;SDS011;3089;48.202;11.510;2024-03-02T00:56:48;11.20;;;6.40;;
6117;SDS011;3089;48.202;11.510;2024-03-02T00:59:16;11.40;;;5.70;;
6117;SDS011;3089;48.202;11.510;2024-03-02T01:01:45;10.67;;;6.03;;
6117;SDS011;3089;48.202;11.510;2024-03-02T01:04:13;10.70;;;5.57;;
6117;SDS011;3089;48.202;11.510;2024-03-02T01:06:41;10.20;;;5.43;;
6117;SDS011;3089;48.202;11.510;2024-03-02T01:09:09;10.53;;;5.90;;
6117;SDS011;3089;48.202;11.510;2024-03-02T01:11:39;8.47;;;5.60;;
6117;SDS011;3089;48.202;11.510;2024-03-02T01:14:08;8.23;;;5.20;;
6117;SDS011;3089;48.202;11.510;2024-03-02T01:16:36;11.40;;;6.10;;
6117;SDS011;3089;48.202;11.510;2024-03-02T01:19:04;10.70;;;5.97;;
6117;SDS011;3089;48.202;11.510;2024-03-02T01:21:33;7.70;;;5.20;;
6117;SDS011;3089;48.202;11.510;2024-03-02T01:24:01;8.10;;;5.43;;
6117;SDS011;3089;48.202;11.510;2024-03-02T01:26:29;10.23;;;5.87;;
6117;SDS011;3089;48.202;11.510;2024-03-02T01:28:59;10.80;;;6.33;;
6117;SDS011;3089;48.202;11.510;2024-03-02T01:31:28;10.80;;;5.93;;
6117;SDS011;3089;48.202;11.510;2024-03-02T01:33:56;9.17;;;6.10;;
6117;SDS011;3089;48.202;11.510;2024-03-02T01:36:24;9.27;;;6.10;;
6117;SDS011;3089;48.202;11.510;2024-03-02T01:38:52;10.30;;;5.93;;
6117;SDS011;3089;48.202;11.510;2024-03-02T01:41:20;10.50;;;5.60;;
6117;SDS011;3089;48.202;11.510;2024-03-02T01:43:48;7.70;;;4.93;;
6117;SDS011;3089;48.202;11.510;2024-03-02T01:46:16;10.77;;;6.37;;
6117;SDS011;3089;48.202;11.510;2024-03-02T01:48:45;10.53;;;5.93;;
6117;SDS011;3089;48.202;11.510;2024-03-02T01:51:14;10.43;;;6.00;;
6117;SDS011;3089;48.202;11.510;2024-03-02T01:53:42;11.90;;;6.40;;
6117;SDS011;3089;48.202;11.510;2024-03-02T01:56:10;11.40;;;5.23;;
6117;SDS011;3089;48.202;11.510;2024-03-02T01:58:38;8.47;;;5.73;;
6117;SDS011;3089;48.202;11.510;2024-03-02T02:01:06;9.43;;;6.10;;
6117;SDS011;3089;48.202;11.510;2024-03-02T02:03:34;13.40;;;6.83;;
6117;SDS011;3089;48.202;11.510;2024-03-02T02:06:04;13.90;;;6.90;;
6117;SDS011;3089;48.202;11.510;2024-03-02T02:08:33;9.63;;;6.30;;
6117;SDS011;3089;48.202;11.510;2024-03-02T02:11:01;13.00;;;7.20;;
6117;SDS011;3089;48.202;11.510;2024-03-02T02:13:29;10.30;;;5.80;;
6117;SDS011;3089;48.202;11.510;2024-03-02T02:16:03;11.63;;;6.17;;
6117;SDS011;3089;48.202;11.510;2024-03-02T02:18:32;11.47;;;7.07;;
6117;SDS011;3089;48.202;11.510;2024-03-02T02:21:00;11.47;;;6.67;;
6117;SDS011;3089;48.202;11.510;2024-03-02T02:23:29;12.60;;;6.83;;
6117;SDS011;3089;48.202;11.510;2024-03-02T02:25:57;12.30;;;6.77;;
6117;SDS011;3089;48.202;11.510;2024-03-02T02:28:25;10.03;;;6.40;;
6117;SDS011;3089;48.202;11.510;2024-03-02T02:30:54;10.50;;;6.77;;
6117;SDS011;3089;48.202;11.510;2024-03-02T02:33:23;12.50;;;6.43;;
6117;SDS011;3089;48.202;11.510;2024-03-02T02:35:51;9.23;;;6.00;;
6117;SDS011;3089;48.202;11.510;2024-03-02T02:38:19;10.70;;;6.53;;
6117;SDS011;3089;48.202;11.510;2024-03-02T02:40:49;13.27;;;6.97;;
6117;SDS011;3089;48.202;11.510;2024-03-02T02:43:16;10.43;;;6.33;;
6117;SDS011;3089;48.202;11.510;2024-03-02T02:45:44;16.37;;;7.53;;
6117;SDS011;3089;48.202;11.510;2024-03-02T02:48:13;15.57;;;7.47;;
6117;SDS011;3089;48.202;11.510;2024-03-02T02:50:41;11.00;;;6.37;;
6117;SDS011;3089;48.202;11.510;2024-03-02T02:53:09;9.83;;;6.00;;
6117;SDS011;3089;48.202;11.510;2024-03-02T02:55:37;21.77;;;9.93;;
6117;SDS011;3089;48.202;11.510;2024-03-02T02:58:08;16.20;;;9.27;;
6117;SDS011;3089;48.202;11.510;2024-03-02T03:00:36;17.47;;;9.33;;
6117;SDS011;3089;48.202;11.510;2024-03-02T03:03:04;15.90;;;8.37;;
6117;SDS011;3089;48.202;11.510;2024-03-02T03:05:32;15.43;;;8.50;;
6117;SDS011;3089;48.202;11.510;2024-03-02T03:08:00;16.23;;;8.53;;
6117;SDS011;3089;48.202;11.510;2024-03-02T03:10:28;18.03;;;8.37;;
6117;SDS011;3089;48.202;11.510;2024-03-02T03:12:57;13.40;;;7.63;;
6117;SDS011;3089;48.202;11.510;2024-03-02T03:15:26;15.03;;;7.43;;
6117;SDS011;3089;48.202;11.510;2024-03-02T03:17:54;12.80;;;6.80;;
6117;SDS011;3089;48.202;11.510;2024-03-02T03:20:22;12.53;;;7.43;;
6117;SDS011;3089;48.202;11.510;2024-03-02T03:22:51;15.43;;;7.50;;
6117;SDS011;3089;48.202;11.510;2024-03-02T03:25:18;13.50;;;7.17;;
6117;SDS011;3089;48.202;11.510;2024-03-02T03:27:46;13.23;;;7.20;;
6117;SDS011;3089;48.202;11.510;2024-03-02T03:30:15;12.00;;;7.30;;
6117;SDS011;3089;48.202;11.510;2024-03-02T03:32:44;11.03;;;6.40;;
6117;SDS011;3089;48.202;11.510;2024-03-02T03:35:14;11.10;;;6.47;;
6117;SDS011;3089;48.202;11.510;2024-03-02T03:37:42;10.13;;;6.57;;
6117;SDS011;3089;48.202;11.510;2024-03-02T03:40:10;13.30;;;6.40;;
6117;SDS011;3089;48.202;11.510;2024-03-02T03:42:40;10.90;;;6.30;;
6117;SDS011;3089;48.202;11.510;2024-03-02T03:45:08;9.60;;;6.23;;
6117;SDS011;3089;48.202;11.510;2024-03-02T03:47:37;11.57;;;6.60;;
6117;SDS011;3089;48.202;11.510;2024-03-02T03:50:07;11.50;;;6.47;;
6117;SDS011;3089;48.202;11.510;2024-03-02T03:52:35;11.90;;;6.77;;
6117;SDS011;3089;48.202;11.510;2024-03-02T03:55:03;9.10;;;5.90;;
6117;SDS011;3089;48.202;11.510;2024-03-02T03:57:32;12.20;;;5.93;;
6117;SDS011;3089;48.202;11.510;2024-03-02T04:00:01;9.40;;;5.87;;
6117;SDS011;3089;48.202;11.510;2024-03-02T04:02:29;11.83;;;6.30;;
6117;SDS011;3089;48.202;11.510;2024-03-02T04:04:57;10.70;;;5.97;;
6117;SDS011;3089;48.202;11.510;2024-03-02T04:07:27;10.07;;;5.97;;
6117;SDS011;3089;48.202;11.510;2024-03-02T04:09:55;11.90;;;6.50;;
6117;SDS011;3089;48.202;11.510;2024-03-02T04:12:23;9.90;;;6.27;;
6117;SDS011;3089;48.202;11.510;2024-03-02T04:14:51;10.07;;;5.27;;
6117;SDS011;3089;48.202;11.510;2024-03-02T04:17:19;14.00;;;6.67;;
6117;SDS011;3089;48.202;11.510;2024-03-02T04:19:47;12.53;;;6.20;;
6117;SDS011;3089;48.202;11.510;2024-03-02T04:22:16;11.03;;;5.70;;
6117;SDS011;3089;48.202;11.510;2024-03-02T04:24:52;9.90;;;6.00;;
6117;SDS011;3089;48.202;11.510;2024-03-02T04:27:20;9.70;;;5.90;;
6117;SDS011;3089;48.202;11.510;2024-03-02T04:29:49;14.20;;;7.13;;
6117;SDS011;3089;48.202;11.510;2024-03-02T04:32:17;13.67;;;6.40;;
6117;SDS011;3089;48.202;11.510;2024-03-02T04:34:46;13.00;;;7.30;;
6117;SDS011;3089;48.202;11.510;2024-03-02T04:37:14;10.83;;;5.83;;
6117;SDS011;3089;48.202;11.510;2024-03-02T04:39:42;12.87;;;6.70;;
6117;SDS011;3089;48.202;11.510;2024-03-02T04:42:11;16.53;;;7.30;;
6117;SDS011;3089;48.202;11.510;2024-03-02T04:44:39;11.97;;;6.50;;
6117;SDS011;3089;48.202;11.510;2024-03-02T04:47:07;10.73;;;5.90;;
6117;SDS011;3089;48.202;11.510;2024-03-02T04:49:35;13.10;;;6.27;;
6117;SDS011;3089;48.202;11.510;2024-03-02T04:52:03;11.10;;;6.40;;
6117;SDS011;3089;48.202;11.510;2024-03-02T04:54:31;15.80;;;7.60;;
6117;SDS011;3089;48.202;11.510;2024-03-02T04:57:21;8.77;;;5.87;;
6117;SDS011;3089;48.202;11.510;2024-03-02T04:59:49;10.53;;;5.93;;
6117;SDS011;3089;48.202;11.510;2024-03-02T05:02:17;9.10;;;5.67;;
6117;SDS011;3089;48.202;11.510;2024-03-02T05:04:45;14.50;;;7.37;;
6117;SDS011;3089;48.202;11.510;2024-03-02T05:07:14;10.97;;;6.60;;
6117;SDS011;3089;48.202;11.510;2024-03-02T05:09:42;11.90;;;6.63;;
6117;SDS011;3089;48.202;11.510;2024-03-02T05:12:10;11.70;;;6.10;;
6117;SDS011;3089;48.202;11.510;2024-03-02T05:15:14;10.13;;;5.90;;
6117;SDS011;3089;48.202;11.510;2024-03-02T05:17:43;11.53;;;6.03;;
6117;SDS011;3089;48.202;11.510;2024-03-02T05:20:11;11.33;;;6.63;;
6117;SDS011;3089;48.202;11.510;2024-03-02T05:22:39;12.63;;;6.33;;
6117;SDS011;3089;48.202;11.510;2024-03-02T05:25:07;9.60;;;6.00;;
6117;SDS011;3089;48.202;11.510;2024-03-02T05:27:37;11.00;;;6.40;;
6117;SDS011;3089;48.202;11.510;2024-03-02T05:30:05;10.07;;;6.10;;
6117;SDS011;3089;48.202;11.510;2024-03-02T05:32:36;12.27;;;6.97;;
6117;SDS011;3089;48.202;11.510;2024-03-02T05:35:05;12.50;;;7.20;;
6117;SDS011;3089;48.202;11.510;2024-03-02T05:37:34;10.20;;;6.70;;
6117;SDS011;3089;48.202;11.510;2024-03-02T05:40:02;12.30;;;7.00;;
6117;SDS011;3089;48.202;11.510;2024-03-02T05:42:32;12.00;;;6.20;;
6117;SDS011;3089;48.202;11.510;2024-03-02T05:45:00;13.20;;;6.93;;
6117;SDS011;3089;48.202;11.510;2024-03-02T05:47:28;14.57;;;7.60;;
6117;SDS011;3089;48.202;11.510;2024-03-02T05:49:57;11.27;;;6.43;;
6117;SDS011;3089;48.202;11.510;2024-03-02T05:52:25;11.93;;;7.03;;
6117;SDS011;3089;48.202;11.510;2024-03-02T05:54:54;11.00;;;6.73;;
6117;SDS011;3089;48.202;11.510;2024-03-02T05:57:22;10.60;;;5.70;;
6117;SDS011;3089;48.202;11.510;2024-03-02T06:00:05;10.23;;;6.83;;
6117;SDS011;3089;48.202;11.510;2024-03-02T06:02:34;11.70;;;6.17;;
6117;SDS011;3089;48.202;11.510;2024-03-02T06:05:06;10.57;;;5.90;;
6117;SDS011;3089;48.202;11.510;2024-03-02T06:07:35;10.33;;;6.03;;
6117;SDS011;3089;48.202;11.510;2024-03-02T06:10:03;14.07;;;7.13;;
6117;SDS011;3089;48.202;11.510;2024-03-02T06:12:37;12.57;;;7.53;;
6117;SDS011;3089;48.202;11.510;2024-03-02T06:15:05;14.90;;;6.83;;
6117;SDS011;3089;48.202;11.510;2024-03-02T06:17:34;12.27;;;7.30;;
6117;SDS011;3089;48.202;11.510;2024-03-02T06:20:03;14.30;;;8.03;;
6117;SDS011;3089;48.202;11.510;2024-03-02T06:22:33;14.63;;;8.70;;
6117;SDS011;3089;48.202;11.510;2024-03-02T06:25:04;14.87;;;8.93;;
6117;SDS011;3089;48.202;11.510;2024-03-02T06:27:32;15.43;;;9.67;;
6117;SDS011;3089;48.202;11.510;2024-03-02T06:30:00;13.63;;;8.67;;
6117;SDS011;3089;48.202;11.510;2024-03-02T06:32:30;13.93;;;8.27;;
6117;SDS011;3089;48.202;11.510;2024-03-02T06:34:58;12.87;;;7.23;;
6117;SDS011;3089;48.202;11.510;2024-03-02T06:37:26;15.77;;;7.47;;
6117;SDS011;3089;48.202;11.510;2024-03-02T06:39:55;12.10;;;7.53;;
6117;SDS011;3089;48.202;11.510;2024-03-02T06:42:24;11.60;;;6.93;;
6117;SDS011;3089;48.202;11.510;2024-03-02T06:44:51;11.57;;;6.97;;
6117;SDS011;3089;48.202;11.510;2024-03-02T06:47:19;14.33;;;6.87;;
6117;SDS011;3089;48.202;11.510;2024-03-02T06:49:47;12.17;;;7.30;;
6117;SDS011;3089;48.202;11.510;2024-03-02T06:52:15;12.70;;;6.87;;
6117;SDS011;3089;48.202;11.510;2024-03-02T06:54:46;10.83;;;6.50;;
6117;SDS011;3089;48.202;11.510;2024-03-02T06:57:16;10.60;;;6.80;;
6117;SDS011;3089;48.202;11.510;2024-03-02T06:59:46;11.20;;;6.83;;
6117;SDS011;3089;48.202;11.510;2024-03-02T07:02:16;13.23;;;7.10;;
6117;SDS011;3089;48.202;11.510;2024-03-02T07:04:44;12.30;;;7.47;;
6117;SDS011;3089;48.202;11.510;2024-03-02T07:07:13;13.17;;;8.10;;
6117;SDS011;3089;48.202;11.510;2024-03-02T07:09:41;11.20;;;6.87;;
6117;SDS011;3089;48.202;11.510;2024-03-02T07:12:09;13.47;;;6.67;;
6117;SDS011;3089;48.202;11.510;2024-03-02T07:14:39;12.30;;;7.47;;
6117;SDS011;3089;48.202;11.510;2024-03-02T07:17:37;13.27;;;6.40;;
6117;SDS011;3089;48.202;11.510;2024-03-02T07:20:05;16.60;;;6.30;;
6117;SDS011;3089;48.202;11.510;2024-03-02T07:22:34;14.77;;;8.37;;
6117;SDS011;3089;48.202;11.510;2024-03-02T07:25:07;11.33;;;7.07;;
6117;SDS011;3089;48.202;11.510;2024-03-02T07:27:55;10.73;;;6.80;;
6117;SDS011;3089;48.202;11.510;2024-03-02T07:30:24;10.80;;;5.87;;
6117;SDS011;3089;48.202;11.510;2024-03-02T07:32:54;12.23;;;7.20;;
6117;SDS011;3089;48.202;11.510;2024-03-02T07:35:22;13.90;;;7.57;;
6117;SDS011;3089;48.202;11.510;2024-03-02T07:37:53;11.73;;;7.00;;
6117;SDS011;3089;48.202;11.510;2024-03-02T07:40:22;13.97;;;8.60;;
6117;SDS011;3089;48.202;11.510;2024-03-02T07:42:50;15.80;;;9.73;;
6117;SDS011;3089;48.202;11.510;2024-03-02T07:45:18;15.83;;;9.50;;
6117;SDS011;3089;48.202;11.510;2024-03-02T07:47:48;17.07;;;9.70;;
6117;SDS011;3089;48.202;11.510;2024-03-02T07:50:16;21.67;;;10.63;;
6117;SDS011;3089;48.202;11.510;2024-03-02T07:52:44;22.00;;;10.30;;
6117;SDS011;3089;48.202;11.510;2024-03-02T07:55:12;18.07;;;12.37;;
6117;SDS011;3089;48.202;11.510;2024-03-02T07:57:40;18.30;;;11.00;;
6117;SDS011;3089;48.202;11.510;2024-03-02T08:00:09;19.63;;;10.07;;
6117;SDS011;3089;48.202;11.510;2024-03-02T08:02:38;19.10;;;11.07;;
6117;SDS011;3089;48.202;11.510;2024-03-02T08:05:10;20.93;;;11.67;;
6117;SDS011;3089;48.202;11.510;2024-03-02T08:07:38;21.57;;;12.27;;
6117;SDS011;3089;48.202;11.510;2024-03-02T08:10:07;22.10;;;12.57;;
6117;SDS011;3089;48.202;11.510;2024-03-02T08:12:36;20.60;;;12.40;;
6117;SDS011;3089;48.202;11.510;2024-03-02T08:15:04;21.40;;;12.70;;
6117;SDS011;3089;48.202;11.510;2024-03-02T08:17:33;23.33;;;12.23;;
6117;SDS011;3089;48.202;11.510;2024-03-02T08:20:04;20.57;;;11.23;;
6117;SDS011;3089;48.202;11.510;2024-03-02T08:22:35;19.10;;;11.83;;
6117;SDS011;3089;48.202;11.510;2024-03-02T08:25:04;20.07;;;11.87;;
6117;SDS011;3089;48.202;11.510;2024-03-02T08:27:32;17.03;;;10.03;;
6117;SDS011;3089;48.202;11.510;2024-03-02T08:30:00;23.33;;;13.10;;
6117;SDS011;3089;48.202;11.510;2024-03-02T08:32:29;22.77;;;14.73;;
6117;SDS011;3089;48.202;11.510;2024-03-02T08:34:57;20.77;;;12.53;;
6117;SDS011;3089;48.202;11.510;2024-03-02T08:37:26;20.50;;;12.00;;
6117;SDS011;3089;48.202;11.510;2024-03-02T08:39:56;18.87;;;12.10;;
6117;SDS011;3089;48.202;11.510;2024-03-02T08:42:24;21.93;;;11.57;;
6117;SDS011;3089;48.202;11.510;2024-03-02T08:44:52;22.90;;;13.60;;
6117;SDS011;3089;48.202;11.510;2024-03-02T08:47:20;20.40;;;12.20;;
6117;SDS011;3089;48.202;11.510;2024-03-02T08:49:48;27.00;;;12.57;;
6117;SDS011;3089;48.202;11.510;2024-03-02T08:52:16;18.87;;;11.13;;
6117;SDS011;3089;48.202;11.510;2024-03-02T08:54:44;20.13;;;12.23;;
6117;SDS011;3089;48.202;11.510;2024-03-02T08:57:13;20.00;;;12.60;;
6117;SDS011;3089;48.202;11.510;2024-03-02T08:59:41;21.63;;;10.60;;
6117;SDS011;3089;48.202;11.510;2024-03-02T09:02:10;16.00;;;10.10;;
6117;SDS011;3089;48.202;11.510;2024-03-02T09:04:38;17.90;;;10.03;;
6117;SDS011;3089;48.202;11.510;2024-03-02T09:07:06;20.30;;;12.30;;
6117;SDS011;3089;48.202;11.510;2024-03-02T09:09:34;17.17;;;10.20;;
6117;SDS011;3089;48.202;11.510;2024-03-02T09:12:02;19.70;;;9.87;;
6117;SDS011;3089;48.202;11.510;2024-03-02T09:14:32;18.03;;;10.33;;
6117;SDS011;3089;48.202;11.510;2024-03-02T09:17:00;18.67;;;10.87;;
6117;SDS011;3089;48.202;11.510;2024-03-02T09:19:29;14.23;;;9.30;;
6117;SDS011;3089;48.202;11.510;2024-03-02T09:21:57;15.80;;;8.47;;
6117;SDS011;3089;48.202;11.510;2024-03-02T09:24:26;13.13;;;8.10;;
6117;SDS011;3089;48.202;11.510;2024-03-02T09:26:54;18.53;;;7.30;;
6117;SDS011;3089;48.202;11.510;2024-03-02T09:29:22;15.40;;;8.57;;
6117;SDS011;3089;48.202;11.510;2024-03-02T09:31:51;15.50;;;8.33;;
6117;SDS011;3089;48.202;11.510;2024-03-02T09:34:19;13.30;;;8.40;;
6117;SDS011;3089;48.202;11.510;2024-03-02T09:36:48;21.70;;;9.40;;
6117;SDS011;3089;48.202;11.510;2024-03-02T09:39:18;15.10;;;9.23;;
6117;SDS011;3089;48.202;11.510;2024-03-02T09:41:47;17.10;;;10.00;;
6117;SDS011;3089;48.202;11.510;2024-03-02T09:44:15;16.33;;;8.40;;
6117;SDS011;3089;48.202;11.510;2024-03-02T09:46:43;16.20;;;9.73;;
6117;SDS011;3089;48.202;11.510;2024-03-02T09:49:17;17.60;;;10.30;;
6117;SDS011;3089;48.202;11.510;2024-03-02T09:51:46;16.23;;;9.37;;
6117;SDS011;3089;48.202;11.510;2024-03-02T09:54:15;21.40;;;11.20;;
6117;SDS011;3089;48.202;11.510;2024-03-02T09:56:48;16.50;;;9.80;;
6117;SDS011;3089;48.202;11.510;2024-03-02T09:59:17;15.07;;;9.33;;
6117;SDS011;3089;48.202;11.510;2024-03-02T10:01:56;17.13;;;8.93;;
6117;SDS011;3089;48.202;11.510;2024-03-02T10:04:27;17.63;;;10.10;;
6117;SDS011;3089;48.202;11.510;2024-03-02T10:07:09;15.97;;;8.93;;
6117;SDS011;3089;48.202;11.510;2024-03-02T10:09:38;18.77;;;11.10;;
6117;SDS011;3089;48.202;11.510;2024-03-02T10:12:07;16.53;;;9.50;;
6117;SDS011;3089;48.202;11.510;2024-03-02T10:14:36;16.50;;;9.37;;
6117;SDS011;3089;48.202;11.510;2024-03-02T10:17:04;16.10;;;8.97;;
6117;SDS011;3089;48.202;11.510;2024-03-02T10:19:35;13.77;;;7.80;;
6117;SDS011;3089;48.202;11.510;2024-03-02T10:22:04;12.10;;;8.03;;
6117;SDS011;3089;48.202;11.510;2024-03-02T10:24:36;13.73;;;8.00;;
6117;SDS011;3089;48.202;11.510;2024-03-02T10:27:09;18.60;;;7.10;;
6117;SDS011;3089;48.202;11.510;2024-03-02T10:29:38;13.73;;;7.43;;
6117;SDS011;3089;48.202;11.510;2024-03-02T10:32:10;15.77;;;8.00;;
6117;SDS011;3089;48.202;11.510;2024-03-02T10:34:40;17.93;;;8.80;;
6117;SDS011;3089;48.202;11.510;2024-03-02T10:37:10;12.60;;;7.23;;
6117;SDS011;3089;48.202;11.510;2024-03-02T10:39:39;16.17;;;7.60;;
6117;SDS011;3089;48.202;11.510;2024-03-02T10:42:08;16.13;;;9.63;;
6117;SDS011;3089;48.202;11.510;2024-03-02T10:44:36;15.80;;;9.10;;
6117;SDS011;3089;48.202;11.510;2024-03-02T10:47:05;16.87;;;9.20;;
6117;SDS011;3089;48.202;11.510;2024-03-02T10:49:33;19.60;;;10.27;;
6117;SDS011;3089;48.202;11.510;2024-03-02T10:52:03;15.90;;;7.97;;
6117;SDS011;3089;48.202;11.510;2024-03-02T10:54:31;18.03;;;9.33;;
6117;SDS011;3089;48.202;11.510;2024-03-02T10:57:04;20.57;;;10.37;;
6117;SDS011;3089;48.202;11.510;2024-03-02T10:59:35;18.57;;;9.30;;
6117;SDS011;3089;48.202;11.510;2024-03-02T11:02:06;18.47;;;9.60;;
6117;SDS011;3089;48.202;11.510;2024-03-02T11:04:35;20.47;;;9.90;;
6117;SDS011;3089;48.202;11.510;2024-03-02T11:07:07;18.00;;;10.40;;
6117;SDS011;3089;48.202;11.510;2024-03-02T11:09:39;22.03;;;11.60;;
6117;SDS011;3089;48.202;11.510;2024-03-02T11:12:09;24.33;;;11.33;;
6117;SDS011;3089;48.202;11.510;2024-03-02T11:14:41;23.50;;;11.67;;
6117;SDS011;3089;48.202;11.510;2024-03-02T11:17:10;19.53;;;10.90;;
6117;SDS011;3089;48.202;11.510;2024-03-02T11:19:39;21.00;;;12.17;;
6117;SDS011;3089;48.202;11.510;2024-03-02T11:22:10;19.47;;;9.67;;
6117;SDS011;3089;48.202;11.510;2024-03-02T11:24:38;16.53;;;9.70;;
6117;SDS011;3089;48.202;11.510;2024-03-02T11:27:06;16.37;;;8.47;;
6117;SDS011;3089;48.202;11.510;2024-03-02T11:29:44;20.47;;;9.30;;
6117;SDS011;3089;48.202;11.510;2024-03-02T11:32:13;17.53;;;9.30;;
6117;SDS011;3089;48.202;11.510;2024-03-02T11:34:46;20.87;;;10.63;;
6117;SDS011;3089;48.202;11.510;2024-03-02T11:37:17;20.97;;;10.40;;
6117;SDS011;3089;48.202;11.510;2024-03-02T11:39:48;24.00;;;9.60;;
6117;SDS011;3089;48.202;11.510;2024-03-02T11:42:18;15.00;;;8.10;;
6117;SDS011;3089;48.202;11.510;2024-03-02T11:44:46;19.27;;;11.20;;
6117;SDS011;3089;48.202;11.510;2024-03-02T11:47:16;19.15;;;11.30;;
6117;SDS011;3089;48.202;11.510;2024-03-02T11:49:45;15.90;;;9.50;;
6117;SDS011;3089;48.202;11.510;2024-03-02T11:52:13;17.60;;;9.30;;
6117;SDS011;3089;48.202;11.510;2024-03-02T11:54:45;18.53;;;10.10;;
6117;SDS011;3089;48.202;11.510;2024-03-02T11:57:15;19.63;;;9.90;;
6117;SDS011;3089;48.202;11.510;2024-03-02T11:59:44;20.47;;;10.30;;
6117;SDS011;3089;48.202;11.510;2024-03-02T12:02:16;18.00;;;8.83;;
6117;SDS011;3089;48.202;11.510;2024-03-02T12:04:44;17.13;;;8.00;;
6117;SDS011;3089;48.202;11.510;2024-03-02T12:07:18;18.15;;;10.65;;
6117;SDS011;3089;48.202;11.510;2024-03-02T12:09:49;20.07;;;11.23;;
6117;SDS011;3089;48.202;11.510;2024-03-02T12:12:26;20.03;;;10.20;;
6117;SDS011;3089;48.202;11.510;2024-03-02T12:14:54;19.42;;;10.88;;
6117;SDS011;3089;48.202;11.510;2024-03-02T12:17:22;16.13;;;10.37;;
6117;SDS011;3089;48.202;11.510;2024-03-02T12:19:50;18.63;;;9.68;;
6117;SDS011;3089;48.202;11.510;2024-03-02T12:22:18;20.47;;;10.83;;
6117;SDS011;3089;48.202;11.510;2024-03-02T12:24:49;16.10;;;9.53;;
6117;SDS011;3089;48.202;11.510;2024-03-02T12:27:18;16.00;;;8.30;;
6117;SDS011;3089;48.202;11.510;2024-03-02T12:29:47;17.60;;;9.67;;
6117;SDS011;3089;48.202;11.510;2024-03-02T12:32:16;20.03;;;11.13;;
6117;SDS011;3089;48.202;11.510;2024-03-02T12:34:46;22.07;;;11.37;;
6117;SDS011;3089;48.202;11.510;2024-03-02T12:37:14;17.90;;;11.10;;
6117;SDS011;3089;48.202;11.510;2024-03-02T12:39:44;19.70;;;10.40;;
6117;SDS011;3089;48.202;11.510;2024-03-02T12:42:13;20.73;;;12.00;;
6117;SDS011;3089;48.202;11.510;2024-03-02T12:44:41;17.53;;;9.33;;
6117;SDS011;3089;48.202;11.510;2024-03-02T12:47:09;17.60;;;10.03;;
6117;SDS011;3089;48.202;11.510;2024-03-02T12:49:39;21.63;;;11.17;;
6117;SDS011;3089;48.202;11.510;2024-03-02T12:52:07;17.33;;;10.37;;
6117;SDS011;3089;48.202;11.510;2024-03-02T12:54:35;16.20;;;9.50;;
6117;SDS011;3089;48.202;11.510;2024-03-02T12:57:03;18.63;;;9.07;;
6117;SDS011;3089;48.202;11.510;2024-03-02T12:59:33;14.60;;;8.90;;
6117;SDS011;3089;48.202;11.510;2024-03-02T13:02:01;17.17;;;10.13;;
6117;SDS011;3089;48.202;11.510;2024-03-02T13:04:29;17.77;;;11.30;;
6117;SDS011;3089;48.202;11.510;2024-03-02T13:06:57;15.10;;;9.20;;
6117;SDS011;3089;48.202;11.510;2024-03-02T13:09:25;18.77;;;9.93;;
6117;SDS011;3089;48.202;11.510;2024-03-02T13:11:54;14.33;;;8.30;;
6117;SDS011;3089;48.202;11.510;2024-03-02T13:14:23;17.77;;;9.23;;
6117;SDS011;3089;48.202;11.510;2024-03-02T13:16:53;16.57;;;10.33;;
6117;SDS011;3089;48.202;11.510;2024-03-02T13:19:23;19.97;;;11.10;;
6117;SDS011;3089;48.202;11.510;2024-03-02T13:21:51;17.50;;;9.60;;
6117;SDS011;3089;48.202;11.510;2024-03-02T13:24:19;16.77;;;10.30;;
6117;SDS011;3089;48.202;11.510;2024-03-02T13:26:47;21.43;;;12.00;;
6117;SDS011;3089;48.202;11.510;2024-03-02T13:29:15;18.90;;;9.90;;
6117;SDS011;3089;48.202;11.510;2024-03-02T13:31:43;20.50;;;10.70;;
6117;SDS011;3089;48.202;11.510;2024-03-02T13:34:12;22.40;;;12.07;;
6117;SDS011;3089;48.202;11.510;2024-03-02T13:36:40;21.23;;;12.30;;
6117;SDS011;3089;48.202;11.510;2024-03-02T13:39:08;19.53;;;10.70;;
6117;SDS011;3089;48.202;11.510;2024-03-02T13:41:36;24.40;;;10.97;;
6117;SDS011;3089;48.202;11.510;2024-03-02T13:44:04;16.27;;;8.57;;
6117;SDS011;3089;48.202;11.510;2024-03-02T13:46:32;14.10;;;7.30;;
6117;SDS011;3089;48.202;11.510;2024-03-02T13:49:00;17.70;;;9.63;;
6117;SDS011;3089;48.202;11.510;2024-03-02T13:51:30;17.07;;;9.53;;
6117;SDS011;3089;48.202;11.510;2024-03-02T13:53:59;17.00;;;9.20;;
6117;SDS011;3089;48.202;11.510;2024-03-02T13:56:29;17.30;;;9.10;;
6117;SDS011;3089;48.202;11.510;2024-03-02T13:58:58;18.07;;;9.70;;
6117;SDS011;3089;48.202;11.510;2024-03-02T14:01:26;21.17;;;11.20;;
6117;SDS011;3089;48.202;11.510;2024-03-02T14:03:54;17.30;;;10.20;;
6117;SDS011;3089;48.202;11.510;2024-03-02T14:06:22;18.33;;;9.70;;
6117;SDS011;3089;48.202;11.510;2024-03-02T14:08:54;15.27;;;8.67;;
6117;SDS011;3089;48.202;11.510;2024-03-02T14:11:22;15.93;;;8.30;;
6117;SDS011;3089;48.202;11.510;2024-03-02T14:13:50;19.10;;;8.73;;
6117;SDS011;3089;48.202;11.510;2024-03-02T14:16:20;13.60;;;8.00;;
6117;SDS011;3089;48.202;11.510;2024-03-02T14:18:48;15.17;;;8.90;;
6117;SDS011;3089;48.202;11.510;2024-03-02T14:21:16;14.57;;;8.80;;
6117;SDS011;3089;48.202;11.510;2024-03-02T14:23:44;19.13;;;9.57;;
6117;SDS011;3089;48.202;11.510;2024-03-02T14:26:14;14.83;;;7.53;;
6117;SDS011;3089;48.202;11.510;2024-03-02T14:28:41;14.53;;;8.70;;
6117;SDS011;3089;48.202;11.510;2024-03-02T14:31:16;18.63;;;10.07;;
6117;SDS011;3089;48.202;11.510;2024-03-02T14:33:46;17.73;;;10.10;;
6117;SDS011;3089;48.202;11.510;2024-03-02T14:36:14;18.10;;;10.83;;
6117;SDS011;3089;48.202;11.510;2024-03-02T14:38:42;16.63;;;8.43;;
6117;SDS011;3089;48.202;11.510;2024-03-02T14:41:10;17.37;;;9.37;;
6117;SDS011;3089;48.202;11.510;2024-03-02T14:43:39;16.10;;;10.17;;
6117;SDS011;3089;48.202;11.510;2024-03-02T14:46:07;19.60;;;10.30;;
6117;SDS011;3089;48.202;11.510;2024-03-02T14:48:35;19.87;;;8.80;;
6117;SDS011;3089;48.202;11.510;2024-03-02T14:51:04;18.37;;;9.93;;
6117;SDS011;3089;48.202;11.510;2024-03-02T14:53:32;18.50;;;9.80;;
6117;SDS011;3089;48.202;11.510;2024-03-02T14:56:00;18.87;;;9.20;;
6117;SDS011;3089;48.202;11.510;2024-03-02T14:58:28;19.60;;;10.63;;